Time;durP1;ratioP1;P1;durP2;ratioP2;P2;SDS_P1;SDS_P2;PMS_P1;PMS_P2;Temp;Humidity;BMP_temperature;BMP_pressure;BME280_temperature;BME280_humidity;BME280_pressure;Samples;Min_cycle;Max_cycle;Signal;HPM_P1;HPM_P2
2022/01/03 00:01:24;;;;;;;10.65;3.72;;;;;;;12.38;49.17;100033.94;5071360;28;20104;-71
2022/01/03 00:03:51;;;;;;;8.43;3.25;;;;;;;12.01;50.36;100029.53;5075521;28;20140;-71
2022/01/03 00:06:20;;;;;;;14.40;4.10;;;;;;;11.72;50.77;100027.66;5074689;28;20057;-71
2022/01/03 00:08:47;;;;;;;8.60;3.47;;;;;;;12.23;50.00;100014.28;5074640;28;20071;-71
2022/01/03 00:11:19;;;;;;;6.95;3.13;;;;;;;12.16;49.58;100010.66;5075563;28;20063;-71
2022/01/03 00:13:50;;;;;;;6.93;3.17;;;;;;;12.38;49.37;100017.78;5073716;28;20037;-71
2022/01/03 00:16:18;;;;;;;11.00;2.75;;;;;;;11.88;50.55;100014.03;5073658;28;20127;-71
2022/01/03 00:18:45;;;;;;;10.23;3.33;;;;;;;11.77;51.20;100013.69;5074500;28;20057;-70
2022/01/03 00:21:14;;;;;;;7.55;2.83;;;;;;;11.55;51.20;99999.25;5072464;28;20045;-71
2022/01/03 00:23:48;;;;;;;11.07;3.38;;;;;;;11.86;50.50;100004.47;5072853;28;20046;-72
2022/01/03 00:26:24;;;;;;;10.88;4.00;;;;;;;11.84;50.61;99995.78;5071732;28;20091;-71
2022/01/03 00:28:59;;;;;;;5.72;3.17;;;;;;;12.06;49.67;99994.81;5071988;28;20036;-71
2022/01/03 00:31:33;;;;;;;12.82;3.60;;;;;;;12.24;49.36;99989.03;5072791;28;20135;-71
2022/01/03 00:34:02;;;;;;;8.25;3.08;;;;;;;12.38;49.03;99985.50;5072326;28;20097;-72
2022/01/03 00:36:30;;;;;;;11.35;3.67;;;;;;;11.94;49.88;99985.59;5073409;28;20048;-71
2022/01/03 00:38:57;;;;;;;10.35;3.75;;;;;;;11.81;50.25;99988.09;5073519;28;20463;-72
2022/01/03 00:41:24;;;;;;;8.50;3.10;;;;;;;12.01;50.18;99989.19;5073060;28;20127;-72
2022/01/03 00:43:53;;;;;;;8.70;3.60;;;;;;;12.32;49.39;99986.25;5073153;28;20123;-72
2022/01/03 00:46:20;;;;;;;7.00;3.63;;;;;;;11.86;50.66;99981.16;5073444;28;20508;-72
2022/01/03 00:48:47;;;;;;;7.78;3.40;;;;;;;12.19;50.17;99977.19;5072737;28;20048;-72
2022/01/03 00:51:19;;;;;;;10.10;3.60;;;;;;;11.84;50.77;99982.34;5072642;28;20040;-72
2022/01/03 00:53:47;;;;;;;7.75;3.30;;;;;;;12.27;50.11;99980.59;5073823;28;20045;-72
2022/01/03 00:56:23;;;;;;;7.80;2.92;;;;;;;11.77;51.10;99978.75;5072709;28;20040;-72
2022/01/03 00:59:09;;;;;;;10.30;3.28;;;;;;;11.91;51.51;99978.72;5072075;28;20156;-72
2022/01/03 01:01:38;;;;;;;11.73;3.25;;;;;;;12.24;51.43;99980.97;5072581;28;20465;-72
2022/01/03 01:04:08;;;;;;;5.45;3.03;;;;;;;11.91;53.01;99973.34;5072586;28;20079;-72
2022/01/03 01:06:36;;;;;;;10.32;3.33;;;;;;;11.90;53.26;99971.69;5072615;28;20121;-72
2022/01/03 01:09:09;;;;;;;10.35;3.65;;;;;;;11.72;54.28;99968.53;5072504;28;20064;-72
2022/01/03 01:11:43;;;;;;;7.40;2.95;;;;;;;11.82;54.41;99970.94;5071834;28;20068;-72
2022/01/03 01:14:10;;;;;;;5.40;2.60;;;;;;;12.24;53.27;99970.22;5074273;28;20079;-72
2022/01/03 01:16:37;;;;;;;9.63;2.95;;;;;;;12.24;53.17;99966.69;5074403;28;20044;-72
2022/01/03 01:19:05;;;;;;;10.55;2.83;;;;;;;12.03;54.15;99959.41;5072371;28;20067;-72
2022/01/03 01:21:32;;;;;;;7.35;2.88;;;;;;;11.76;54.37;99956.41;5073833;28;20104;-72
2022/01/03 01:23:59;;;;;;;12.43;3.03;;;;;;;11.90;54.51;99949.34;5072785;28;20048;-72
2022/01/03 01:29:12;;;;;;;7.93;2.72;;;;;;;11.85;54.74;99947.22;5071118;28;20060;-72
2022/01/03 01:31:47;;;;;;;8.77;3.05;;;;;;;11.51;55.65;99937.00;5071249;28;20124;-72
2022/01/03 01:34:26;;;;;;;10.48;2.97;;;;;;;11.47;55.76;99930.34;5071122;28;20070;-72
2022/01/03 01:36:57;;;;;;;8.10;3.08;;;;;;;11.01;57.42;99918.94;5070482;28;20044;-72
2022/01/03 01:39:27;;;;;;;9.02;3.10;;;;;;;11.51;55.87;99926.28;5071948;28;20503;-72
2022/01/03 01:41:59;;;;;;;6.30;2.60;;;;;;;11.55;55.71;99930.28;5071183;28;20055;-72
2022/01/03 01:44:26;;;;;;;9.48;3.33;;;;;;;11.57;55.73;99911.28;5061680;28;20504;-72
2022/01/03 01:46:55;;;;;;;5.88;2.85;;;;;;;11.64;55.60;99907.66;5071338;28;20044;-72
2022/01/03 01:49:24;;;;;;;6.65;2.75;;;;;;;11.76;55.25;99893.75;5071053;28;20489;-72
2022/01/03 01:51:59;;;;;;;6.40;2.70;;;;;;;11.32;56.24;99908.03;5071949;28;20131;-72
2022/01/03 01:54:34;;;;;;;6.63;2.60;;;;;;;11.24;56.27;99919.72;5072289;28;20056;-72
2022/01/03 01:57:07;;;;;;;4.90;2.60;;;;;;;11.25;56.63;99899.88;5072884;28;20444;-72
2022/01/03 01:59:38;;;;;;;6.45;2.83;;;;;;;11.54;55.92;99909.78;5071058;28;20131;-72
2022/01/03 02:02:08;;;;;;;3.95;1.67;;;;;;;11.13;57.19;99920.13;5064819;28;20119;-72
2022/01/03 02:04:46;;;;;;;8.98;1.80;;;;;;;10.87;57.48;99913.34;5070690;28;20050;-72
2022/01/03 02:07:41;;;;;;;4.57;2.20;;;;;;;11.67;55.10;99910.00;5072187;28;20115;-72
2022/01/03 02:10:10;;;;;;;5.15;2.30;;;;;;;11.43;55.63;99913.78;5070510;28;20123;-72
2022/01/03 02:12:39;;;;;;;5.30;2.10;;;;;;;11.29;56.28;99906.56;5072297;28;20100;-72
2022/01/03 02:15:11;;;;;;;5.50;1.67;;;;;;;11.32;56.30;99908.88;5071153;28;20078;-72
2022/01/03 02:17:38;;;;;;;4.80;1.85;;;;;;;11.03;57.21;99916.88;5072699;28;20037;-72
2022/01/03 02:20:08;;;;;;;7.20;2.00;;;;;;;10.92;57.42;99913.63;5072399;28;20127;-71
2022/01/03 02:22:37;;;;;;;4.93;1.70;;;;;;;10.97;57.17;99895.16;5072452;28;20490;-72
2022/01/03 02:25:06;;;;;;;5.35;1.90;;;;;;;11.25;56.71;99896.38;5072982;28;20442;-71
2022/01/03 02:27:32;;;;;;;6.63;2.22;;;;;;;10.88;57.57;99896.22;5073043;28;20128;-72
2022/01/03 02:30:00;;;;;;;4.68;2.00;;;;;;;10.56;58.40;99896.53;5071690;28;20132;-71
2022/01/03 02:32:26;;;;;;;5.43;1.90;;;;;;;11.21;57.06;99890.53;5072983;28;20137;-71
2022/01/03 02:34:53;;;;;;;5.80;1.63;;;;;;;11.49;55.83;99887.22;5072612;28;20082;-71
2022/01/03 02:37:22;;;;;;;4.28;1.90;;;;;;;11.08;56.65;99888.50;5069338;28;20051;-71
2022/01/03 02:39:50;;;;;;;3.97;1.85;;;;;;;11.64;55.88;99885.31;5073028;28;20552;-71
2022/01/03 02:42:20;;;;;;;4.40;1.73;;;;;;;11.11;56.82;99874.72;5071334;28;20044;-72
2022/01/03 02:44:46;;;;;;;2.55;1.40;;;;;;;11.65;55.45;99877.06;5071270;28;20041;-71
2022/01/03 02:47:20;;;;;;;2.53;1.50;;;;;;;11.10;57.01;99880.25;5071912;28;20496;-71
2022/01/03 02:49:47;;;;;;;3.78;1.40;;;;;;;11.27;56.48;99876.34;5074676;28;20051;-71
2022/01/03 02:52:13;;;;;;;2.80;1.40;;;;;;;11.63;55.64;99878.28;5074569;28;20045;-71
2022/01/03 02:54:40;;;;;;;2.65;1.20;;;;;;;10.87;56.98;99865.06;5076363;28;20525;-71
2022/01/03 02:57:06;;;;;;;6.68;1.60;;;;;;;11.38;55.88;99864.34;5075377;28;20050;-71
2022/01/03 02:59:33;;;;;;;3.50;1.17;;;;;;;11.21;55.94;99864.53;5075430;28;20067;-70
2022/01/03 03:02:00;;;;;;;5.68;1.20;;;;;;;11.33;55.62;99864.88;5075627;28;20127;-71
2022/01/03 03:04:26;;;;;;;3.13;1.20;;;;;;;11.40;54.95;99860.44;5077361;28;20123;-71
2022/01/03 03:06:53;;;;;;;2.92;1.25;;;;;;;11.43;55.23;99857.38;5075518;28;20048;-71
2022/01/03 03:09:21;;;;;;;3.22;1.17;;;;;;;11.48;54.10;99846.06;5076369;28;20489;-70
2022/01/03 03:11:47;;;;;;;2.60;1.25;;;;;;;11.11;55.30;99838.97;5076211;28;20484;-71
2022/01/03 03:14:14;;;;;;;2.88;1.05;;;;;;;11.61;53.94;99840.03;5075842;28;20496;-71
2022/01/03 03:16:42;;;;;;;2.47;0.93;;;;;;;11.46;54.31;99838.19;5076764;28;20048;-71
2022/01/03 03:19:11;;;;;;;4.50;1.23;;;;;;;10.77;55.89;99821.56;5075824;28;20119;-71
2022/01/03 03:21:37;;;;;;;2.05;1.10;;;;;;;10.94;55.03;99820.38;5075593;28;20058;-72
2022/01/03 03:24:04;;;;;;;2.63;1.00;;;;;;;11.39;54.00;99821.19;5076073;28;20166;-72
2022/01/03 03:26:30;;;;;;;1.48;0.93;;;;;;;10.80;55.14;99826.56;5072941;28;20545;-71
2022/01/03 03:28:57;;;;;;;2.42;0.93;;;;;;;10.78;55.35;99827.75;5073940;28;20499;-71
2022/01/03 03:31:23;;;;;;;4.05;1.08;;;;;;;11.06;55.23;99822.59;5074545;28;20127;-72
2022/01/03 03:33:50;;;;;;;2.88;1.00;;;;;;;11.11;55.26;99828.25;5074268;28;20044;-71
2022/01/03 03:36:16;;;;;;;2.97;1.27;;;;;;;10.99;55.17;99828.69;5075789;28;20461;-71
2022/01/03 03:38:43;;;;;;;5.88;1.38;;;;;;;11.17;54.74;99816.75;5074771;28;20075;-71
2022/01/03 03:41:09;;;;;;;2.60;1.23;;;;;;;11.55;54.03;99805.84;5074040;28;20132;-72
2022/01/03 03:43:36;;;;;;;4.78;1.30;;;;;;;11.35;55.37;99811.84;5074726;28;20127;-72
2022/01/03 03:46:02;;;;;;;4.65;1.00;;;;;;;11.30;54.67;99814.22;5074817;28;20075;-72
2022/01/03 03:48:31;;;;;;;3.67;1.10;;;;;;;11.10;55.16;99815.81;5073725;28;20060;-72
2022/01/03 03:50:58;;;;;;;3.92;1.20;;;;;;;10.76;56.21;99798.44;5074904;28;20120;-71
2022/01/03 03:53:26;;;;;;;2.28;1.10;;;;;;;10.92;56.02;99802.78;5076513;28;20429;-71
2022/01/03 03:55:52;;;;;;;3.15;1.20;;;;;;;10.85;55.82;99807.22;5073083;28;20079;-72
2022/01/03 03:58:19;;;;;;;6.15;1.50;;;;;;;10.61;56.86;99808.31;5070892;28;20036;-71
2022/01/03 04:00:45;;;;;;;7.28;1.10;;;;;;;11.11;55.71;99815.66;5067915;28;20139;-72
2022/01/03 04:03:31;;;;;;;5.22;1.30;;;;;;;11.05;56.25;99818.25;5074938;28;20044;-72
2022/01/03 04:05:58;;;;;;;4.65;1.42;;;;;;;11.04;56.49;99819.28;5074660;28;20071;-72
2022/01/03 04:08:25;;;;;;;5.07;1.60;;;;;;;10.69;57.61;99827.84;5074067;28;20079;-72
2022/01/03 04:10:51;;;;;;;7.40;1.65;;;;;;;10.40;57.95;99833.09;5073139;28;20131;-72
2022/01/03 04:13:17;;;;;;;5.43;1.30;;;;;;;10.41;58.24;99824.91;5074274;28;20131;-72
2022/01/03 04:15:44;;;;;;;5.18;1.30;;;;;;;10.48;58.22;99830.38;5071959;28;20064;-72
2022/01/03 04:18:10;;;;;;;7.28;1.48;;;;;;;10.60;58.03;99828.09;5074269;28;20127;-72
2022/01/03 04:20:37;;;;;;;4.03;1.27;;;;;;;11.20;56.76;99821.75;5074205;28;20100;-70
2022/01/03 04:23:03;;;;;;;15.32;2.10;;;;;;;10.48;57.81;99825.84;5074497;28;20128;-71
2022/01/03 04:25:29;;;;;;;4.65;1.10;;;;;;;10.70;57.75;99829.50;5074010;28;20489;-71
2022/01/03 04:27:56;;;;;;;5.80;0.98;;;;;;;10.00;58.96;99810.97;5072923;28;20132;-70
2022/01/03 04:30:22;;;;;;;4.85;0.90;;;;;;;10.82;56.23;99837.09;5074494;28;20525;-70
2022/01/03 04:32:49;;;;;;;2.45;0.60;;;;;;;10.54;56.79;99834.19;5056125;28;20050;-71
2022/01/03 04:35:15;;;;;;;2.88;0.65;;;;;;;10.91;55.41;99841.38;5072952;28;20488;-70
2022/01/03 04:37:42;;;;;;;3.70;0.60;;;;;;;10.69;55.96;99845.78;5072823;28;20132;-70
2022/01/03 04:40:09;;;;;;;4.32;0.63;;;;;;;10.59;55.52;99858.63;5074881;28;20426;-70
2022/01/03 04:42:35;;;;;;;2.13;0.50;;;;;;;10.67;55.05;99845.97;5074205;28;20480;-70
2022/01/03 04:45:02;;;;;;;2.25;0.30;;;;;;;10.47;55.17;99845.59;5074352;28;20055;-70
2022/01/03 04:47:29;;;;;;;3.58;0.85;;;;;;;10.53;54.51;99854.81;5073905;28;20055;-71
2022/01/03 04:49:55;;;;;;;2.78;0.40;;;;;;;10.72;54.07;99869.53;5073769;28;20128;-71
2022/01/03 04:52:22;;;;;;;2.13;0.50;;;;;;;10.78;53.66;99870.69;5055637;28;20056;-70
2022/01/03 04:54:49;;;;;;;2.35;0.30;;;;;;;10.80;53.49;99884.75;5056559;28;20123;-70
2022/01/03 04:57:15;;;;;;;5.18;0.50;;;;;;;10.94;52.58;99890.13;5073167;28;20127;-71
2022/01/03 04:59:41;;;;;;;1.15;0.22;;;;;;;10.59;53.37;99891.66;5073479;28;20041;-71
2022/01/03 05:02:08;;;;;;;0.52;0.20;;;;;;;10.57;53.48;99890.16;5057482;28;20045;-71
2022/01/03 05:04:35;;;;;;;1.75;0.45;;;;;;;10.55;53.43;99889.47;5073617;28;20045;-71
2022/01/03 05:07:01;;;;;;;3.50;0.52;;;;;;;10.11;54.53;99890.13;5073229;28;20127;-71
2022/01/03 05:09:28;;;;;;;2.70;0.32;;;;;;;10.38;52.99;99903.00;5072667;28;20108;-71
2022/01/03 05:11:55;;;;;;;0.75;0.20;;;;;;;10.69;52.13;99918.22;5071120;28;20048;-72
2022/01/03 05:14:21;;;;;;;0.57;0.30;;;;;;;10.58;52.01;99921.31;5073690;28;20075;-71
2022/01/03 05:16:49;;;;;;;5.18;0.43;;;;;;;10.43;53.27;99910.50;5072920;28;20041;-71
2022/01/03 05:19:15;;;;;;;1.13;0.30;;;;;;;10.52;52.05;99935.47;5074485;28;20055;-71
2022/01/03 05:21:42;;;;;;;0.25;0.10;;;;;;;10.40;52.74;99940.34;5074720;28;20457;-70
2022/01/03 05:24:08;;;;;;;1.90;0.40;;;;;;;10.79;51.59;99950.13;5074241;28;20451;-70
2022/01/03 05:26:35;;;;;;;0.35;0.22;;;;;;;10.11;54.21;99924.97;5074122;28;20040;-71
2022/01/03 05:29:01;;;;;;;0.73;0.30;;;;;;;10.48;53.11;99938.47;5072858;28;20078;-70
2022/01/03 05:31:28;;;;;;;0.88;0.38;;;;;;;10.69;53.07;99950.41;5072828;28;20076;-70
2022/01/03 05:33:55;;;;;;;0.30;0.20;;;;;;;10.27;54.29;99963.25;5072819;28;20181;-71
2022/01/03 05:36:22;;;;;;;2.60;1.17;;;;;;;10.71;53.94;99969.81;5072632;28;20528;-70
2022/01/03 05:38:48;;;;;;;2.47;0.30;;;;;;;11.12;53.36;99983.75;5072627;28;20127;-71
2022/01/03 05:41:15;;;;;;;1.40;0.40;;;;;;;10.83;54.15;99979.13;5072032;28;20075;-71
2022/01/03 05:43:41;;;;;;;0.50;0.45;;;;;;;10.78;55.30;99978.81;5072257;28;20059;-71
2022/01/03 05:46:08;;;;;;;0.15;0.15;;;;;;;10.47;56.44;99974.31;5074754;28;20064;-71
2022/01/03 05:48:34;;;;;;;4.07;0.52;;;;;;;10.67;55.70;99980.09;5072640;28;20048;-72
2022/01/03 05:51:01;;;;;;;3.10;0.85;;;;;;;10.52;56.01;99981.06;5074039;28;20056;-71
2022/01/03 05:53:29;;;;;;;2.47;0.45;;;;;;;10.21;56.83;99993.44;5073832;28;20071;-71
2022/01/03 05:55:59;;;;;;;3.38;0.55;;;;;;;10.12;57.66;99991.78;5074398;28;20068;-71
2022/01/03 05:58:26;;;;;;;5.30;0.70;;;;;;;10.41;56.76;100001.00;5072499;28;20077;-71
2022/01/03 06:00:53;;;;;;;5.70;1.88;;;;;;;10.64;56.39;99990.34;5071795;28;20080;-71
2022/01/03 06:03:22;;;;;;;2.58;0.80;;;;;;;10.14;57.55;100007.72;5072905;28;20101;-71
2022/01/03 06:08:21;;;;;;;1.85;0.65;;;;;;;10.57;56.48;100010.84;5073168;28;20062;-71
2022/01/03 06:10:48;;;;;;;6.65;1.00;;;;;;;10.68;56.45;100002.38;5074238;28;20127;-70
2022/01/03 06:13:15;;;;;;;3.75;0.70;;;;;;;10.93;55.91;100011.94;5072999;28;20072;-72
2022/01/03 06:15:42;;;;;;;6.50;1.00;;;;;;;11.09;55.16;100021.69;5073038;28;20074;-70
2022/01/03 06:18:11;;;;;;;10.05;1.08;;;;;;;11.17;55.05;100018.09;5074483;28;20123;-71
2022/01/03 06:20:43;;;;;;;3.28;0.70;;;;;;;10.56;56.30;100027.94;5075089;28;20079;-71
2022/01/03 06:23:10;;;;;;;3.25;1.05;;;;;;;10.87;56.01;100034.09;5076228;28;20068;-70
2022/01/03 06:25:37;;;;;;;3.90;0.70;;;;;;;10.12;57.34;100033.84;5077756;28;20534;-70
2022/01/03 06:28:07;;;;;;;5.93;1.10;;;;;;;10.79;56.68;100036.00;5078214;28;20066;-70
2022/01/03 06:30:34;;;;;;;4.85;1.13;;;;;;;10.64;56.41;100031.41;5077273;28;20131;-70
2022/01/03 06:33:00;;;;;;;5.10;0.98;;;;;;;10.99;55.72;100034.50;5078460;28;20457;-71
2022/01/03 06:35:27;;;;;;;10.60;1.30;;;;;;;10.87;54.75;100044.00;5077949;28;20064;-70
2022/01/03 06:37:53;;;;;;;3.40;1.13;;;;;;;10.83;56.03;100046.22;5077297;28;20045;-70
2022/01/03 06:40:20;;;;;;;6.05;1.58;;;;;;;11.29;54.77;100051.56;5077176;28;20067;-70
2022/01/03 06:42:47;;;;;;;8.57;1.25;;;;;;;10.90;55.26;100052.53;5076729;28;20063;-71
2022/01/03 06:45:16;;;;;;;10.13;1.30;;;;;;;10.69;55.48;100057.72;5077849;28;20529;-70
2022/01/03 06:47:43;;;;;;;17.35;2.72;;;;;;;11.06;54.96;100066.84;5077242;28;20067;-71
2022/01/03 06:50:09;;;;;;;9.18;2.20;;;;;;;10.10;57.53;100071.53;5076720;28;20046;-70
2022/01/03 06:52:37;;;;;;;10.43;1.63;;;;;;;10.74;55.71;100072.25;5079737;28;20044;-71
2022/01/03 06:55:05;;;;;;;7.85;1.30;;;;;;;11.28;54.68;100068.69;5080823;28;20044;-70
2022/01/03 06:57:32;;;;;;;11.52;1.98;;;;;;;10.63;56.13;100074.50;5080389;28;20515;-71
2022/01/03 06:59:58;;;;;;;17.40;1.88;;;;;;;11.01;55.00;100069.25;5078616;28;20059;-70
2022/01/03 07:02:25;;;;;;;12.85;2.22;;;;;;;11.04;54.88;100087.69;5077142;28;20151;-70
2022/01/03 07:04:51;;;;;;;20.02;2.40;;;;;;;11.16;54.82;100087.06;5079066;28;20047;-70
2022/01/03 07:07:18;;;;;;;9.63;1.55;;;;;;;10.96;55.00;100086.72;5077964;28;20071;-70
2022/01/03 07:09:44;;;;;;;20.00;2.53;;;;;;;11.38;53.77;100095.31;5079841;28;20119;-70
2022/01/03 07:12:11;;;;;;;9.23;1.95;;;;;;;10.93;55.50;100103.19;5079800;28;20447;-70
2022/01/03 07:19:58;;;;;;;15.43;2.10;;;;;;;11.50;53.99;100109.13;5076770;28;20437;-71
2022/01/03 07:22:25;;;;;;;17.40;2.30;;;;;;;10.91;54.87;100105.19;5076690;28;20439;-71
2022/01/03 07:24:52;;;;;;;11.93;2.35;;;;;;;11.50;53.43;100111.81;5077580;28;20109;-71
2022/01/03 07:27:19;;;;;;;16.48;2.00;;;;;;;10.87;54.87;100111.94;5075757;28;20044;-71
2022/01/03 07:29:48;;;;;;;15.35;2.15;;;;;;;10.95;53.72;100121.78;5076584;28;20341;-71
2022/01/03 07:32:14;;;;;;;15.88;1.92;;;;;;;11.02;53.74;100122.72;5076073;28;20061;-70
2022/01/03 07:34:41;;;;;;;19.27;2.50;;;;;;;11.20;53.61;100117.06;5076619;28;20044;-71
2022/01/03 07:37:07;;;;;;;14.85;2.45;;;;;;;10.81;54.82;100118.00;5077230;28;20064;-71
2022/01/03 07:39:34;;;;;;;13.85;2.58;;;;;;;11.25;53.98;100124.59;5075391;28;20220;-71
2022/01/03 07:42:02;;;;;;;9.88;1.70;;;;;;;11.01;54.35;100133.66;5075152;28;20041;-70
2022/01/03 07:44:29;;;;;;;19.75;2.60;;;;;;;11.20;53.92;100130.50;5075923;28;20049;-70
2022/01/03 07:46:56;;;;;;;19.77;2.42;;;;;;;11.30;54.31;100128.41;5075506;28;20048;-70
2022/01/03 07:49:23;;;;;;;16.40;1.92;;;;;;;11.03;55.07;100145.03;5075144;28;20064;-72
2022/01/03 07:51:50;;;;;;;18.23;2.42;;;;;;;10.77;55.92;100132.78;5073886;28;20132;-71
2022/01/03 07:54:16;;;;;;;11.32;2.40;;;;;;;10.77;55.44;100130.09;5074804;28;20045;-70
2022/01/03 07:56:43;;;;;;;16.63;2.20;;;;;;;10.45;57.03;100133.75;5076005;28;20060;-70
2022/01/03 07:59:09;;;;;;;21.00;3.88;;;;;;;10.94;55.78;100136.22;5076206;28;20049;-69
2022/01/03 08:01:37;;;;;;;14.65;2.17;;;;;;;11.01;55.31;100139.84;5076100;28;20068;-69
2022/01/03 08:04:04;;;;;;;9.55;1.48;;;;;;;11.30;54.62;100157.09;5076277;28;20128;-70
2022/01/03 08:06:44;;;;;;;19.13;2.35;;;;;;;11.15;54.93;100149.00;5075964;28;20045;-70
2022/01/03 08:09:10;;;;;;;15.57;2.70;;;;;;;10.81;56.18;100154.72;5076175;28;20132;-70
2022/01/03 08:11:37;;;;;;;16.60;3.40;;;;;;;10.63;56.72;100163.03;5076014;28;20072;-70
2022/01/03 08:14:03;;;;;;;14.82;3.45;;;;;;;10.74;57.01;100157.28;5076128;28;20075;-71
2022/01/03 08:16:30;;;;;;;17.52;2.75;;;;;;;10.47;57.35;100161.22;5075325;28;20124;-70
2022/01/03 08:18:56;;;;;;;14.45;2.80;;;;;;;10.53;57.09;100160.56;5074123;28;20044;-70
2022/01/03 08:21:23;;;;;;;20.65;3.20;;;;;;;11.00;56.36;100156.97;5074719;28;20044;-70
2022/01/03 08:23:51;;;;;;;20.33;2.97;;;;;;;11.05;55.64;100154.59;5075120;28;20092;-69
2022/01/03 08:26:17;;;;;;;12.27;2.13;;;;;;;11.09;55.75;100150.53;5077185;28;20506;-69
2022/01/03 08:28:45;;;;;;;24.67;3.20;;;;;;;11.31;55.25;100154.25;5075806;28;20132;-69
2022/01/03 08:31:12;;;;;;;25.92;3.53;;;;;;;10.85;56.65;100158.72;5074603;28;20067;-69
2022/01/03 08:33:39;;;;;;;18.88;3.05;;;;;;;11.36;54.85;100161.78;5075001;28;20044;-70
2022/01/03 08:36:05;;;;;;;19.30;3.10;;;;;;;11.09;56.01;100155.91;5075496;28;20123;-70
2022/01/03 08:38:32;;;;;;;21.88;3.70;;;;;;;11.19;55.41;100164.56;5075186;28;20140;-69
2022/01/03 08:40:58;;;;;;;14.52;2.78;;;;;;;10.68;56.73;100163.34;5075158;28;20068;-70
2022/01/03 08:43:25;;;;;;;22.42;3.53;;;;;;;11.09;55.36;100160.44;5075357;28;20131;-69
2022/01/03 08:45:52;;;;;;;21.90;3.38;;;;;;;11.23;54.98;100160.50;5073738;28;20044;-69
2022/01/03 08:48:18;;;;;;;19.80;3.20;;;;;;;11.07;55.14;100154.44;5074843;28;20471;-69
2022/01/03 08:50:44;;;;;;;27.02;3.35;;;;;;;11.02;54.62;100159.47;5075897;28;20070;-70
2022/01/03 08:53:11;;;;;;;22.75;2.72;;;;;;;10.85;54.89;100162.25;5073178;28;20104;-70
2022/01/03 08:55:38;;;;;;;30.60;4.32;;;;;;;11.10;54.02;100162.97;5075501;28;20071;-70
2022/01/03 08:58:04;;;;;;;27.45;4.88;;;;;;;10.86;55.13;100172.00;5076101;28;20108;-70
2022/01/03 09:00:31;;;;;;;21.02;3.20;;;;;;;10.70;55.19;100164.84;5076879;28;20163;-72
2022/01/03 09:02:57;;;;;;;21.58;3.95;;;;;;;11.01;54.50;100153.28;5076816;28;20112;-72
2022/01/03 09:05:24;;;;;;;20.77;3.22;;;;;;;11.17;54.00;100157.69;5076647;28;20103;-74
2022/01/03 09:07:50;;;;;;;16.80;3.10;;;;;;;10.66;54.78;100160.00;5077091;28;20056;-72
2022/01/03 09:10:17;;;;;;;21.42;3.42;;;;;;;11.07;54.13;100157.13;5076089;28;20041;-71
2022/01/03 09:12:43;;;;;;;18.45;2.97;;;;;;;11.02;54.03;100159.47;5074343;28;20135;-71
2022/01/03 09:15:10;;;;;;;17.95;2.92;;;;;;;10.99;54.25;100166.84;5074020;28;20080;-70
2022/01/03 09:17:36;;;;;;;27.98;3.70;;;;;;;11.20;54.02;100163.53;5074986;28;20135;-70
2022/01/03 09:20:04;;;;;;;21.40;3.00;;;;;;;11.37;53.67;100166.13;5073697;28;20045;-70
2022/01/03 09:22:35;;;;;;;26.13;3.85;;;;;;;11.54;53.18;100170.34;5073893;28;20131;-70
2022/01/03 09:30:14;;;;;;;18.33;3.13;;;;;;;10.86;53.97;100166.63;5072703;28;20447;-72
2022/01/03 09:32:41;;;;;;;17.02;2.25;;;;;;;11.05;53.59;100173.38;5072681;28;20117;-70
2022/01/03 09:35:08;;;;;;;21.48;3.03;;;;;;;11.22;52.72;100180.31;5072330;28;20064;-73
2022/01/03 09:37:35;;;;;;;23.25;2.90;;;;;;;11.25;52.57;100171.09;5074029;28;20233;-71
2022/01/03 09:40:05;;;;;;;17.88;2.38;;;;;;;11.59;51.68;100172.53;5072411;28;20123;-71
2022/01/03 09:42:31;;;;;;;17.17;3.47;;;;;;;11.28;52.57;100175.28;5072717;28;20108;-70
2022/01/03 09:45:06;;;;;;;20.40;2.88;;;;;;;11.83;51.03;100175.03;5072233;28;20464;-72
2022/01/03 09:47:32;;;;;;;19.23;3.60;;;;;;;11.43;51.80;100174.31;5072989;28;20048;-73
2022/01/03 09:50:00;;;;;;;14.65;2.17;;;;;;;11.25;52.24;100176.44;5074035;28;20119;-71
2022/01/03 09:52:27;;;;;;;15.77;2.67;;;;;;;11.31;52.40;100169.50;5056630;28;20040;-71
2022/01/03 09:54:55;;;;;;;17.88;3.30;;;;;;;11.84;50.94;100175.84;5074366;28;20127;-72
2022/01/03 09:57:22;;;;;;;23.63;3.83;;;;;;;11.49;51.85;100177.31;5072691;28;20052;-71
2022/01/03 09:59:49;;;;;;;19.67;2.83;;;;;;;11.77;51.24;100178.44;5074207;28;20120;-72
2022/01/03 10:02:17;;;;;;;18.13;3.13;;;;;;;11.70;51.56;100185.56;5073983;28;20114;-73
2022/01/03 10:04:44;;;;;;;22.48;2.97;;;;;;;11.69;52.07;100179.34;5073768;28;20123;-71
2022/01/03 10:07:12;;;;;;;18.92;3.00;;;;;;;11.57;52.18;100175.38;5066734;28;22286;-71
2022/01/03 10:09:39;;;;;;;17.27;3.72;;;;;;;11.53;52.14;100178.59;5073015;28;20044;-73
2022/01/03 10:12:10;;;;;;;22.02;3.80;;;;;;;11.46;52.08;100179.31;5074285;28;20048;-71
2022/01/03 10:14:36;;;;;;;21.48;3.20;;;;;;;12.06;51.21;100172.28;5074499;28;20083;-71
2022/01/03 10:17:03;;;;;;;30.58;4.00;;;;;;;12.31;50.42;100170.16;5073288;28;20124;-70
2022/01/03 10:19:54;;;;;;;17.08;2.95;;;;;;;12.37;50.48;100164.03;5074523;28;20049;-74
2022/01/03 10:22:26;;;;;;;21.20;3.67;;;;;;;12.68;49.43;100181.00;5074732;28;20087;-72
2022/01/03 10:24:53;;;;;;;18.30;2.92;;;;;;;12.68;50.08;100159.47;5073277;28;20138;-73
2022/01/03 10:27:23;;;;;;;21.52;4.03;;;;;;;13.52;47.67;100159.81;5075020;28;20104;-71
2022/01/03 10:29:55;;;;;;;19.00;3.85;;;;;;;13.37;47.25;100165.28;5075287;28;20064;-72
2022/01/03 10:32:27;;;;;;;19.20;4.03;;;;;;;13.87;46.06;100143.75;5072811;28;20132;-70
2022/01/03 10:34:56;;;;;;;16.17;3.33;;;;;;;14.05;46.36;100157.59;5073571;28;20044;-71
2022/01/03 10:37:34;;;;;;;21.55;3.83;;;;;;;14.13;45.58;100157.44;5072527;28;20148;-70
2022/01/03 10:40:20;;;;;;;22.58;4.78;;;;;;;14.59;44.61;100156.03;5074465;28;20059;-71
2022/01/03 10:42:47;;;;;;;16.55;3.85;;;;;;;13.67;45.33;100162.44;5074020;28;20052;-70
2022/01/03 10:45:14;;;;;;;21.52;3.40;;;;;;;13.49;46.74;100154.78;5073054;28;20075;-72
2022/01/03 10:47:42;;;;;;;20.60;3.65;;;;;;;13.48;46.08;100156.66;5072206;28;20056;-71
2022/01/03 10:50:15;;;;;;;23.38;3.38;;;;;;;13.39;46.33;100157.84;5073731;28;20060;-74
2022/01/03 10:52:42;;;;;;;19.40;4.20;;;;;;;13.39;46.09;100148.91;5070918;28;20056;-74
2022/01/03 10:55:35;;;;;;;22.58;4.38;;;;;;;13.28;45.96;100159.19;5072476;28;20071;-73
2022/01/03 10:58:08;;;;;;;22.55;3.60;;;;;;;12.88;46.91;100157.91;5071746;28;20049;-73
2022/01/03 11:00:39;;;;;;;20.67;3.75;;;;;;;13.03;47.08;100156.00;5073670;28;20048;-73
2022/01/03 11:03:42;;;;;;;23.70;4.50;;;;;;;12.58;47.14;100154.38;5073227;28;20048;-73
2022/01/03 11:06:22;;;;;;;19.15;4.07;;;;;;;12.83;46.71;100149.53;5071336;28;20048;-73
2022/01/03 11:11:40;;;;;;;15.63;4.05;;;;;;;11.90;48.52;100137.50;5072288;28;20067;-73
2022/01/03 11:14:33;;;;;;;26.75;4.43;;;;;;;12.18;47.66;100151.16;5076023;28;20131;-73
2022/01/03 11:17:02;;;;;;;19.58;4.70;;;;;;;12.53;47.64;100149.56;5075065;28;20070;-71
2022/01/03 11:19:39;;;;;;;17.02;3.65;;;;;;;13.07;46.40;100140.28;5075966;28;20052;-71
2022/01/03 11:22:05;;;;;;;19.55;3.50;;;;;;;12.51;47.25;100140.84;5064840;28;20064;-71
2022/01/03 11:24:32;;;;;;;18.52;3.90;;;;;;;12.37;47.43;100136.31;5076206;28;20052;-71
2022/01/03 11:27:00;;;;;;;28.20;4.43;;;;;;;12.23;47.06;100132.59;5077665;28;20111;-72
2022/01/03 11:29:31;;;;;;;28.03;5.07;;;;;;;11.85;47.83;100129.13;5065178;28;20054;-72
2022/01/03 11:32:00;;;;;;;21.50;6.95;;;;;;;12.40;46.54;100134.09;5074790;28;20045;-71
2022/01/03 11:34:27;;;;;;;22.40;3.78;;;;;;;12.50;46.28;100132.97;5075712;28;20052;-72
2022/01/03 11:36:57;;;;;;;23.27;4.07;;;;;;;12.28;46.35;100127.50;5075970;28;20456;-72
2022/01/03 11:39:28;;;;;;;23.25;4.75;;;;;;;12.20;47.35;100116.00;5076891;28;20144;-72
2022/01/03 11:41:55;;;;;;;22.80;4.30;;;;;;;12.03;47.77;100120.72;5077344;28;20049;-72
2022/01/03 11:44:22;;;;;;;21.02;4.53;;;;;;;12.65;46.71;100121.16;5076926;28;20084;-72
2022/01/03 11:46:48;;;;;;;26.30;5.15;;;;;;;12.11;47.48;100108.03;5075151;28;20048;-72
2022/01/03 11:49:17;;;;;;;21.88;4.45;;;;;;;12.51;46.28;100100.47;5076937;28;20124;-71